Time;durP1;ratioP1;P1;durP2;ratioP2;P2;SDS_P1;SDS_P2;PMS_P1;PMS_P2;Temp;Humidity;BMP_temperature;BMP_pressure;BME280_temperature;BME280_humidity;BME280_pressure;Samples;Min_cycle;Max_cycle;Signal;HPM_P1;HPM_P2
2021/01/27 00:01:59;;;;;;;0.30;0.30;;;4.70;41.30;;;;;;5079967;28;20027;-80
2021/01/27 00:04:25;;;;;;;0.40;0.40;;;4.80;40.80;;;;;;5081094;28;20016;-79
2021/01/27 00:06:51;;;;;;;0.60;0.60;;;4.80;40.70;;;;;;5065814;28;20054;-80
2021/01/27 00:09:16;;;;;;;1.38;0.50;;;4.80;41.30;;;;;;5084707;28;20470;-81
2021/01/27 00:11:42;;;;;;;0.63;0.50;;;4.70;41.90;;;;;;5071239;28;20136;-81
2021/01/27 00:14:08;;;;;;;0.60;0.55;;;4.70;42.40;;;;;;5077369;28;20027;-81
2021/01/27 00:16:33;;;;;;;0.45;0.45;;;4.70;41.80;;;;;;5068791;28;20021;-78
2021/01/27 00:19:02;;;;;;;0.40;0.40;;;4.60;41.80;;;;;;5069367;28;20394;-80
2021/01/27 00:21:28;;;;;;;0.50;0.50;;;4.70;41.40;;;;;;5071733;28;20424;-80
2021/01/27 00:23:53;;;;;;;0.43;0.43;;;4.70;41.40;;;;;;5074907;28;20040;-77
2021/01/27 00:26:19;;;;;;;0.70;0.70;;;4.70;41.50;;;;;;5093183;28;20074;-79
2021/01/27 00:28:45;;;;;;;0.32;0.32;;;4.70;41.20;;;;;;5075346;28;20050;-79
2021/01/27 00:31:10;;;;;;;0.38;0.38;;;4.70;40.90;;;;;;5075014;28;20122;-79
2021/01/27 00:33:36;;;;;;;0.35;0.35;;;4.70;41.20;;;;;;5075634;28;20073;-77
2021/01/27 00:36:02;;;;;;;0.50;0.50;;;4.70;41.50;;;;;;5070933;28;20028;-77
2021/01/27 00:38:28;;;;;;;0.85;0.45;;;4.70;41.50;;;;;;5055198;28;20036;-78
2021/01/27 00:40:56;;;;;;;1.10;0.50;;;4.80;41.20;;;;;;5055187;28;20124;-78
2021/01/27 00:43:24;;;;;;;0.75;0.70;;;4.70;41.70;;;;;;5055293;28;20031;-79
2021/01/27 00:45:51;;;;;;;0.50;0.50;;;4.70;41.40;;;;;;5063770;28;20482;-79
2021/01/27 00:48:17;;;;;;;0.55;0.55;;;4.70;41.40;;;;;;5071777;28;20024;-78
2021/01/27 00:50:43;;;;;;;0.55;0.55;;;4.80;41.10;;;;;;5056590;28;20025;-77
2021/01/27 00:53:09;;;;;;;0.60;0.60;;;4.70;41.70;;;;;;5068487;28;20025;-78
2021/01/27 00:55:34;;;;;;;0.60;0.60;;;4.70;41.80;;;;;;5094913;28;20039;-78
2021/01/27 00:58:01;;;;;;;0.75;0.65;;;4.70;41.50;;;;;;5076975;28;20081;-78
2021/01/27 01:00:31;;;;;;;0.52;0.40;;;4.70;42.70;;;;;;5095072;28;20032;-78
2021/01/27 01:02:57;;;;;;;0.73;0.60;;;4.70;42.20;;;;;;5094917;28;20047;-78
2021/01/27 01:05:33;;;;;;;0.47;0.47;;;4.70;42.50;;;;;;5064025;28;20032;-78
2021/01/27 01:07:59;;;;;;;0.55;0.50;;;4.60;42.90;;;;;;5074605;28;20074;-78
2021/01/27 01:10:32;;;;;;;0.60;0.60;;;4.60;42.90;;;;;;5056762;28;20028;-78
2021/01/27 01:12:59;;;;;;;2.25;0.68;;;4.50;43.50;;;;;;5056921;28;20090;-78
2021/01/27 01:15:26;;;;;;;0.70;0.70;;;4.50;44.20;;;;;;5056701;28;20119;-78
2021/01/27 01:17:51;;;;;;;0.50;0.40;;;4.40;43.90;;;;;;5076957;28;20082;-78
2021/01/27 01:20:17;;;;;;;0.70;0.70;;;4.40;44.20;;;;;;5094772;28;20028;-78
2021/01/27 01:22:44;;;;;;;0.52;0.52;;;4.40;43.90;;;;;;5073114;28;20046;-78
2021/01/27 01:25:11;;;;;;;1.02;0.50;;;4.40;43.50;;;;;;5093671;28;20052;-78
2021/01/27 01:27:36;;;;;;;0.35;0.35;;;4.40;43.80;;;;;;5076558;28;20031;-78
2021/01/27 01:30:16;;;;;;;0.40;0.40;;;4.50;43.50;;;;;;5076490;28;20115;-78
2021/01/27 01:32:42;;;;;;;0.50;0.50;;;4.40;43.40;;;;;;5094535;28;20022;-78
2021/01/27 01:35:10;;;;;;;1.15;0.38;;;4.40;43.70;;;;;;5076118;28;20119;-78
2021/01/27 01:37:38;;;;;;;0.68;0.60;;;4.50;43.40;;;;;;5094456;28;20481;-78
2021/01/27 01:40:05;;;;;;;0.45;0.38;;;4.50;42.80;;;;;;5076161;28;20036;-78
2021/01/27 01:42:31;;;;;;;0.65;0.40;;;4.50;42.60;;;;;;5076218;28;20382;-78
2021/01/27 01:44:58;;;;;;;0.50;0.50;;;4.60;42.60;;;;;;5094467;28;20026;-78
2021/01/27 01:47:24;;;;;;;0.57;0.45;;;4.60;42.10;;;;;;5094355;28;20020;-78
2021/01/27 01:49:51;;;;;;;0.35;0.35;;;4.60;42.80;;;;;;5094163;28;20558;-78
2021/01/27 01:52:17;;;;;;;0.40;0.40;;;4.60;42.20;;;;;;5094313;28;20024;-78
2021/01/27 01:54:48;;;;;;;0.40;0.40;;;4.70;42.10;;;;;;5094320;28;20709;-78
2021/01/27 01:57:25;;;;;;;0.40;0.40;;;4.60;42.60;;;;;;5076025;28;20027;-78
2021/01/27 02:00:03;;;;;;;0.50;0.50;;;4.60;42.30;;;;;;5075880;28;20016;-78
2021/01/27 02:02:31;;;;;;;0.88;0.50;;;4.70;42.30;;;;;;5094053;28;20099;-78
2021/01/27 02:05:01;;;;;;;0.45;0.45;;;4.70;42.10;;;;;;5094108;28;20020;-79
2021/01/27 02:07:27;;;;;;;0.50;0.50;;;4.60;42.30;;;;;;5075811;28;20386;-78
2021/01/27 02:09:53;;;;;;;0.73;0.45;;;4.70;41.90;;;;;;5075826;28;20067;-78
2021/01/27 02:12:37;;;;;;;0.55;0.40;;;4.70;41.80;;;;;;5093775;28;20495;-78
2021/01/27 02:15:22;;;;;;;0.75;0.50;;;4.80;41.40;;;;;;5093546;28;20044;-78
2021/01/27 02:17:50;;;;;;;1.00;0.40;;;4.80;41.50;;;;;;5073092;28;20438;-78
2021/01/27 02:20:35;;;;;;;0.77;0.60;;;4.70;41.40;;;;;;5056713;28;20063;-78
2021/01/27 02:23:33;;;;;;;0.50;0.40;;;4.70;41.70;;;;;;5093375;28;20052;-78
2021/01/27 02:26:20;;;;;;;1.55;0.40;;;4.70;41.60;;;;;;5092938;28;20078;-78
2021/01/27 02:29:01;;;;;;;0.20;0.20;;;4.70;41.60;;;;;;5075149;28;20118;-78
2021/01/27 02:31:40;;;;;;;0.50;0.50;;;4.70;42.00;;;;;;5075213;28;20028;-77
2021/01/27 02:34:12;;;;;;;0.38;0.38;;;4.70;41.70;;;;;;5075073;28;20043;-78
2021/01/27 02:37:09;;;;;;;0.40;0.40;;;4.70;41.60;;;;;;5092508;28;20093;-78
2021/01/27 02:39:44;;;;;;;0.25;0.25;;;4.70;41.40;;;;;;5070401;28;20498;-78
2021/01/27 02:42:33;;;;;;;0.50;0.50;;;4.80;41.10;;;;;;5072425;28;20391;-78
2021/01/27 02:45:24;;;;;;;0.63;0.63;;;4.80;40.90;;;;;;5068119;28;20049;-78
2021/01/27 02:48:11;;;;;;;0.52;0.43;;;4.80;40.60;;;;;;5092427;28;20016;-78
2021/01/27 02:51:19;;;;;;;0.40;0.40;;;4.80;41.20;;;;;;5092617;28;20042;-78
2021/01/27 02:54:12;;;;;;;0.50;0.50;;;4.80;41.50;;;;;;5089614;28;20086;-78
2021/01/27 02:56:42;;;;;;;0.30;0.30;;;4.80;40.90;;;;;;5074961;28;20485;-77
2021/01/27 02:59:20;;;;;;;0.30;0.30;;;4.80;40.50;;;;;;5074905;28;20048;-78
2021/01/27 03:01:57;;;;;;;0.40;0.40;;;4.90;40.30;;;;;;5092890;28;20028;-78
2021/01/27 03:04:30;;;;;;;1.85;0.50;;;4.80;40.70;;;;;;5075077;28;20043;-78
2021/01/27 03:06:57;;;;;;;0.30;0.30;;;4.90;40.50;;;;;;5093118;28;20024;-77
2021/01/27 03:09:36;;;;;;;0.43;0.43;;;4.90;40.50;;;;;;5092912;28;20035;-78
2021/01/27 03:12:02;;;;;;;0.68;0.40;;;4.90;40.50;;;;;;5074969;28;20039;-77
2021/01/27 03:14:28;;;;;;;0.30;0.30;;;4.90;40.40;;;;;;5074889;28;20024;-78
2021/01/27 03:17:01;;;;;;;0.30;0.30;;;4.90;41.00;;;;;;5092937;28;20474;-77
2021/01/27 03:19:39;;;;;;;0.47;0.47;;;4.80;41.50;;;;;;5074681;28;20028;-77
2021/01/27 03:22:14;;;;;;;0.30;0.30;;;4.80;41.20;;;;;;5092897;28;20024;-77
2021/01/27 03:24:49;;;;;;;0.60;0.60;;;4.80;41.50;;;;;;5074645;28;20443;-77
2021/01/27 03:27:21;;;;;;;0.40;0.40;;;4.70;42.00;;;;;;5092848;28;20062;-77
2021/01/27 03:29:52;;;;;;;0.38;0.38;;;4.60;42.00;;;;;;5074839;28;20035;-77
2021/01/27 03:32:42;;;;;;;0.30;0.30;;;4.60;42.00;;;;;;5089842;28;20012;-77
2021/01/27 03:35:26;;;;;;;1.55;0.40;;;4.60;41.90;;;;;;5072577;28;20481;-78
2021/01/27 03:38:00;;;;;;;0.30;0.30;;;4.60;42.40;;;;;;5072429;28;20029;-77
2021/01/27 03:40:26;;;;;;;0.40;0.40;;;4.50;42.50;;;;;;5063846;28;20036;-77
2021/01/27 03:43:08;;;;;;;0.95;0.30;;;4.50;42.50;;;;;;5071204;28;20029;-77
2021/01/27 03:45:40;;;;;;;0.50;0.40;;;4.50;41.80;;;;;;5066516;28;20056;-78
2021/01/27 03:48:09;;;;;;;0.38;0.38;;;4.50;42.20;;;;;;5074217;28;20021;-78
2021/01/27 03:50:37;;;;;;;0.40;0.40;;;4.60;41.90;;;;;;5074528;28;20545;-77
2021/01/27 03:53:14;;;;;;;0.40;0.40;;;4.60;42.00;;;;;;5074506;28;20038;-77
2021/01/27 03:56:07;;;;;;;0.40;0.30;;;4.60;41.70;;;;;;5074377;28;20032;-78
2021/01/27 03:58:39;;;;;;;0.30;0.20;;;4.50;42.10;;;;;;5096402;28;20024;-78
2021/01/27 04:01:25;;;;;;;0.95;0.40;;;4.50;41.80;;;;;;5096652;28;20028;-78
2021/01/27 04:03:52;;;;;;;0.30;0.30;;;4.60;41.40;;;;;;5078378;28;20024;-78
2021/01/27 04:06:18;;;;;;;0.63;0.63;;;4.60;42.10;;;;;;5088219;28;20024;-78
2021/01/27 04:08:44;;;;;;;0.32;0.32;;;4.60;41.80;;;;;;5096731;28;20020;-78
2021/01/27 04:11:10;;;;;;;1.00;0.40;;;4.60;41.80;;;;;;5096833;28;20020;-78
2021/01/27 04:13:35;;;;;;;0.30;0.30;;;4.60;41.50;;;;;;5096928;28;20047;-78
2021/01/27 04:16:02;;;;;;;0.50;0.47;;;4.60;41.30;;;;;;5078337;28;20024;-78
2021/01/27 04:18:28;;;;;;;0.30;0.30;;;4.60;41.60;;;;;;5101381;28;20496;-78
2021/01/27 04:20:54;;;;;;;0.30;0.30;;;4.60;41.80;;;;;;5092783;28;20119;-78
2021/01/27 04:23:19;;;;;;;0.43;0.30;;;4.60;41.10;;;;;;5096029;28;20068;-78
2021/01/27 04:25:46;;;;;;;0.30;0.30;;;4.60;42.00;;;;;;5096736;28;20055;-78
2021/01/27 04:28:12;;;;;;;0.43;0.40;;;4.60;41.60;;;;;;5078596;28;20016;-78
2021/01/27 04:30:38;;;;;;;0.47;0.47;;;4.60;41.70;;;;;;5096038;28;20166;-78
2021/01/27 04:33:07;;;;;;;0.45;0.45;;;4.50;41.80;;;;;;5077919;28;20045;-78
2021/01/27 04:35:32;;;;;;;0.40;0.40;;;4.50;42.10;;;;;;5096230;28;20020;-78
2021/01/27 04:37:59;;;;;;;0.43;0.40;;;4.50;42.20;;;;;;5064438;28;20111;-78
2021/01/27 04:40:33;;;;;;;4.03;0.35;;;4.50;42.50;;;;;;5057845;28;20107;-78
2021/01/27 04:42:59;;;;;;;0.30;0.30;;;4.50;42.20;;;;;;5057835;28;20021;-78
2021/01/27 04:45:26;;;;;;;1.02;0.25;;;4.50;42.20;;;;;;5058029;28;20029;-78
2021/01/27 04:47:57;;;;;;;1.00;0.35;;;4.50;41.60;;;;;;5057832;28;20043;-78
2021/01/27 04:50:42;;;;;;;0.25;0.25;;;4.50;41.50;;;;;;5070229;28;20453;-78
2021/01/27 04:53:46;;;;;;;0.30;0.30;;;4.50;41.90;;;;;;5077909;28;20024;-78
2021/01/27 04:56:24;;;;;;;0.40;0.40;;;4.50;41.90;;;;;;5077714;28;20470;-78
2021/01/27 04:59:00;;;;;;;0.50;0.50;;;4.50;42.30;;;;;;5078083;28;20401;-78
2021/01/27 05:02:15;;;;;;;0.45;0.45;;;4.50;42.70;;;;;;5095856;28;20024;-78
2021/01/27 05:04:56;;;;;;;0.40;0.40;;;4.40;42.50;;;;;;4994193;28;20064;-78
2021/01/27 05:07:36;;;;;;;0.28;0.28;;;4.40;42.60;;;;;;5068999;28;20030;-78
2021/01/27 05:10:04;;;;;;;0.30;0.30;;;4.40;42.60;;;;;;5057104;28;20024;-78
2021/01/27 05:12:43;;;;;;;0.30;0.30;;;4.40;42.50;;;;;;5084214;28;20036;-78
2021/01/27 05:15:11;;;;;;;0.40;0.40;;;4.40;42.70;;;;;;5095457;28;20030;-78
2021/01/27 05:17:42;;;;;;;0.73;0.50;;;4.40;42.90;;;;;;5095358;28;20024;-78
2021/01/27 05:20:09;;;;;;;0.22;0.22;;;4.30;43.20;;;;;;5077057;28;20120;-78
2021/01/27 05:22:35;;;;;;;0.30;0.30;;;4.40;42.60;;;;;;5077158;28;20540;-78
2021/01/27 05:25:03;;;;;;;0.20;0.20;;;4.40;42.40;;;;;;5077397;28;20020;-78
2021/01/27 05:27:33;;;;;;;0.70;0.70;;;4.40;42.80;;;;;;5075934;28;20059;-78
2021/01/27 05:30:01;;;;;;;0.55;0.40;;;4.40;42.70;;;;;;5077214;28;20020;-78
2021/01/27 05:32:27;;;;;;;0.30;0.30;;;4.40;42.70;;;;;;5068789;28;20027;-78
2021/01/27 05:34:55;;;;;;;0.40;0.40;;;4.40;42.70;;;;;;5057111;28;20414;-78
2021/01/27 05:37:27;;;;;;;0.50;0.50;;;4.40;42.80;;;;;;5074613;28;20024;-78
2021/01/27 05:40:26;;;;;;;0.30;0.30;;;4.40;42.60;;;;;;5056998;28;20037;-78
2021/01/27 05:42:52;;;;;;;0.40;0.40;;;4.40;42.80;;;;;;5056918;28;20024;-78
2021/01/27 05:45:30;;;;;;;0.35;0.35;;;4.40;43.00;;;;;;5068511;28;20138;-78
2021/01/27 05:48:10;;;;;;;0.35;0.35;;;4.40;43.20;;;;;;5076673;28;20028;-78
2021/01/27 05:50:41;;;;;;;1.90;0.40;;;4.40;43.00;;;;;;5094885;28;20367;-78
2021/01/27 05:53:16;;;;;;;0.40;0.40;;;4.40;42.80;;;;;;5094823;28;20283;-78
2021/01/27 05:56:15;;;;;;;1.05;0.50;;;4.40;42.80;;;;;;5076711;28;20036;-78
2021/01/27 05:58:45;;;;;;;0.30;0.30;;;4.40;42.70;;;;;;5094193;28;20062;-78
2021/01/27 06:01:19;;;;;;;0.28;0.28;;;4.40;42.60;;;;;;5076459;28;20077;-78
2021/01/27 06:04:00;;;;;;;0.20;0.20;;;4.40;42.90;;;;;;5076341;28;20020;-78
2021/01/27 06:06:32;;;;;;;2.28;0.40;;;4.40;44.00;;;;;;5076055;28;20509;-78
2021/01/27 06:09:00;;;;;;;0.60;0.40;;;4.30;42.90;;;;;;5075679;28;20024;-78
2021/01/27 06:11:27;;;;;;;2.17;0.40;;;4.40;43.20;;;;;;5075662;28;20032;-78
2021/01/27 06:14:06;;;;;;;0.30;0.30;;;4.30;43.10;;;;;;5075503;28;20032;-78
2021/01/27 06:16:40;;;;;;;2.42;0.40;;;4.40;43.40;;;;;;5075471;28;20047;-78
2021/01/27 06:19:10;;;;;;;0.50;0.50;;;4.40;43.60;;;;;;5082456;28;20098;-78
2021/01/27 06:22:01;;;;;;;0.30;0.30;;;4.40;43.20;;;;;;5075096;28;20043;-77
2021/01/27 06:24:30;;;;;;;0.47;0.40;;;4.40;43.30;;;;;;5075160;28;20045;-78
2021/01/27 06:27:13;;;;;;;0.50;0.50;;;4.40;42.70;;;;;;5075735;28;20025;-77
2021/01/27 06:29:57;;;;;;;0.50;0.47;;;4.40;43.10;;;;;;5075360;28;20111;-78
2021/01/27 06:33:01;;;;;;;0.35;0.35;;;4.40;42.70;;;;;;5075789;28;20024;-77
2021/01/27 06:36:07;;;;;;;2.15;0.40;;;4.40;43.00;;;;;;5073655;28;20025;-78
2021/01/27 06:39:07;;;;;;;0.45;0.45;;;4.40;42.90;;;;;;5037884;28;20021;-77
2021/01/27 06:42:24;;;;;;;0.93;0.20;;;4.50;43.10;;;;;;5057459;28;20036;-78
2021/01/27 06:45:02;;;;;;;0.30;0.30;;;4.50;42.70;;;;;;5023000;28;20032;-78
2021/01/27 06:48:01;;;;;;;0.30;0.30;;;4.50;42.60;;;;;;5090231;28;20024;-77
2021/01/27 06:50:58;;;;;;;2.42;0.40;;;4.50;42.30;;;;;;5075587;28;20486;-78
2021/01/27 06:53:37;;;;;;;0.40;0.40;;;4.50;42.60;;;;;;5093820;28;20046;-78
2021/01/27 06:56:23;;;;;;;0.63;0.30;;;4.50;42.30;;;;;;5092662;28;20032;-77
2021/01/27 06:59:32;;;;;;;0.73;0.20;;;4.50;42.70;;;;;;5093388;28;20122;-78
2021/01/27 07:02:03;;;;;;;0.33;0.33;;;4.50;42.20;;;;;;5093670;28;20020;-77
2021/01/27 07:04:46;;;;;;;1.20;1.10;;;4.50;42.80;;;;;;5075003;28;20085;-79
2021/01/27 07:07:50;;;;;;;1.90;1.63;;;4.50;42.50;;;;;;5075440;28;20097;-77
2021/01/27 07:10:42;;;;;;;0.70;0.70;;;4.50;42.60;;;;;;5069615;28;20032;-78
2021/01/27 07:13:26;;;;;;;;;;;4.50;42.60;;;;;;5055668;28;20032;-78
2021/01/27 07:16:00;;;;;;;0.50;0.50;;;4.50;42.70;;;;;;5073088;28;19923;-78
2021/01/27 07:18:46;;;;;;;0.60;0.60;;;4.50;42.70;;;;;;5080333;28;20020;-77
2021/01/27 07:21:17;;;;;;;0.30;0.30;;;4.50;42.80;;;;;;5070292;28;20035;-77
2021/01/27 07:24:06;;;;;;;0.30;0.30;;;4.60;42.10;;;;;;5072626;28;20080;-78
2021/01/27 07:26:39;;;;;;;0.50;0.30;;;4.60;42.30;;;;;;5048306;28;20025;-78
2021/01/27 07:29:49;;;;;;;0.30;0.30;;;4.70;42.40;;;;;;5055270;28;20025;-78
2021/01/27 07:32:23;;;;;;;0.90;0.55;;;4.70;42.30;;;;;;5029969;28;20033;-77
2021/01/27 07:37:51;;;;;;;0.40;0.40;;;4.70;42.30;;;;;;5042044;28;20478;-79
2021/01/27 07:40:20;;;;;;;;;;;4.80;42.00;;;;;;5092837;28;20028;-79
2021/01/27 07:43:04;;;;;;;0.40;0.40;;;4.90;41.60;;;;;;5072311;28;19952;-79
2021/01/27 07:45:36;;;;;;;0.60;0.60;;;5.00;41.30;;;;;;5054255;28;20134;-79
2021/01/27 07:48:19;;;;;;;1.77;1.67;;;5.00;41.10;;;;;;5057064;28;20505;-79
2021/01/27 07:50:55;;;;;;;1.88;1.77;;;5.00;41.40;;;;;;5058292;28;20116;-79
2021/01/27 07:53:27;;;;;;;2.78;1.48;;;5.00;41.50;;;;;;5070691;28;20025;-79
2021/01/27 07:56:19;;;;;;;2.72;1.65;;;5.10;41.40;;;;;;5047998;28;20520;-78
2021/01/27 07:59:11;;;;;;;0.88;0.88;;;5.20;40.90;;;;;;5047899;28;20020;-79
2021/01/27 08:01:43;;;;;;;0.70;0.70;;;5.20;40.80;;;;;;5082832;28;20025;-77
2021/01/27 08:04:20;;;;;;;1.02;1.02;;;5.30;40.60;;;;;;5075202;28;20020;-77
2021/01/27 08:06:49;;;;;;;0.70;0.70;;;5.40;39.90;;;;;;5065851;28;20024;-78
2021/01/27 08:09:37;;;;;;;0.70;0.70;;;5.40;40.20;;;;;;5057116;28;20048;-79
2021/01/27 08:12:14;;;;;;;1.08;1.08;;;5.50;40.40;;;;;;5068376;28;20020;-78
2021/01/27 08:15:14;;;;;;;3.33;1.02;;;5.60;40.90;;;;;;5054796;28;20032;-78
2021/01/27 08:17:54;;;;;;;1.45;1.35;;;5.70;40.50;;;;;;5077181;28;20397;-78
2021/01/27 08:20:37;;;;;;;0.88;0.88;;;5.80;39.80;;;;;;5075700;28;20020;-77
2021/01/27 08:23:20;;;;;;;0.70;0.70;;;5.90;39.90;;;;;;5088545;28;20044;-78
2021/01/27 08:26:06;;;;;;;1.15;0.77;;;5.90;39.60;;;;;;5092676;28;20103;-79
2021/01/27 08:28:39;;;;;;;0.77;0.70;;;6.00;39.60;;;;;;5091818;28;20012;-79
2021/01/27 08:31:10;;;;;;;;;;;6.00;39.40;;;;;;5078933;28;20025;-79
2021/01/27 08:33:49;;;;;;;0.50;0.50;;;6.10;40.80;;;;;;5071579;28;20354;-80
2021/01/27 08:36:44;;;;;;;0.60;0.60;;;6.20;38.70;;;;;;5072234;28;20124;-80
2021/01/27 08:39:21;;;;;;;0.38;0.38;;;6.30;39.60;;;;;;5072121;28;20064;-80
2021/01/27 08:41:51;;;;;;;268.45;20.25;;;6.40;38.80;;;;;;5071458;28;20036;-79
2021/01/27 08:44:20;;;;;;;17.67;3.05;;;6.50;38.60;;;;;;5070575;28;20024;-79
2021/01/27 08:46:52;;;;;;;6.65;3.50;;;6.40;43.10;;;;;;5071921;28;20494;-79
2021/01/27 08:49:36;;;;;;;6.53;3.15;;;6.10;44.40;;;;;;5072343;28;20024;-80
2021/01/27 08:52:30;;;;;;;13.73;3.75;;;6.00;45.40;;;;;;5073052;28;20039;-80
2021/01/27 08:54:56;;;;;;;20.13;5.55;;;5.90;46.80;;;;;;5063091;28;20122;-79
2021/01/27 08:57:26;;;;;;;16.60;4.22;;;5.90;47.40;;;;;;5074607;28;20035;-80
2021/01/27 09:00:30;;;;;;;8.93;3.45;;;5.80;47.50;;;;;;5074228;28;20035;-79
2021/01/27 09:03:05;;;;;;;6.57;2.88;;;5.80;47.40;;;;;;5072102;28;20063;-80
2021/01/27 09:05:43;;;;;;;6.95;3.65;;;5.70;47.60;;;;;;5074831;28;20058;-79
2021/01/27 09:08:12;;;;;;;6.50;3.78;;;5.70;47.10;;;;;;5062797;28;20055;-79
2021/01/27 09:10:44;;;;;;;6.35;3.53;;;5.70;47.40;;;;;;5071352;28;20040;-79
2021/01/27 09:13:33;;;;;;;10.45;4.10;;;5.70;47.70;;;;;;5070987;28;20021;-80
2021/01/27 09:16:16;;;;;;;25.95;6.90;;;5.60;48.10;;;;;;5070602;28;20032;-79
2021/01/27 09:19:02;;;;;;;10.27;4.85;;;5.60;48.50;;;;;;5070842;28;20497;-79
2021/01/27 09:21:32;;;;;;;13.60;4.00;;;5.60;48.20;;;;;;5071863;28;20041;-79
2021/01/27 09:24:16;;;;;;;9.57;4.70;;;5.60;47.60;;;;;;5086525;28;20507;-79
2021/01/27 09:26:46;;;;;;;20.00;4.10;;;5.60;47.70;;;;;;5112293;28;20051;-79
2021/01/27 09:29:23;;;;;;;17.80;3.67;;;5.60;47.70;;;;;;5092793;28;20070;-79
2021/01/27 09:31:50;;;;;;;16.27;4.78;;;5.70;48.20;;;;;;5093588;28;20106;-78
2021/01/27 09:34:20;;;;;;;13.20;5.60;;;5.70;48.90;;;;;;5086588;28;20051;-79
2021/01/27 09:36:49;;;;;;;9.43;4.35;;;5.70;48.80;;;;;;5070901;28;20025;-79
2021/01/27 09:39:25;;;;;;;9.07;4.60;;;5.80;49.40;;;;;;5053162;28;20032;-79
2021/01/27 09:41:51;;;;;;;12.05;4.38;;;5.80;50.30;;;;;;5052714;28;20032;-78
2021/01/27 09:44:35;;;;;;;10.50;5.70;;;5.90;49.70;;;;;;5064024;28;20028;-80
2021/01/27 09:47:13;;;;;;;8.73;4.72;;;5.90;50.00;;;;;;5056719;28;20021;-78
2021/01/27 09:49:52;;;;;;;6.57;2.70;;;6.00;49.70;;;;;;5100517;28;20031;-77
2021/01/27 09:52:22;;;;;;;7.50;3.65;;;6.40;56.80;;;;;;5069040;28;20031;-78
2021/01/27 09:55:17;;;;;;;9.88;4.53;;;6.30;49.00;;;;;;5087241;28;20154;-77
2021/01/27 09:57:50;;;;;;;6.30;4.35;;;6.30;49.60;;;;;;5093648;28;20442;-78
2021/01/27 10:00:25;;;;;;;9.30;5.05;;;6.20;50.40;;;;;;5077697;28;20063;-77
2021/01/27 10:02:52;;;;;;;4.90;2.47;;;6.20;50.70;;;;;;5062285;28;20023;-77
2021/01/27 10:05:40;;;;;;;3.05;2.20;;;6.20;49.40;;;;;;5059348;28;20629;-77
2021/01/27 10:08:40;;;;;;;7.78;3.17;;;6.20;48.60;;;;;;5050890;28;20033;-77
2021/01/27 10:11:09;;;;;;;3.30;2.08;;;6.20;49.30;;;;;;5072085;28;20512;-77
2021/01/27 10:13:37;;;;;;;3.30;2.13;;;6.20;47.60;;;;;;5061035;28;20543;-77
2021/01/27 10:16:09;;;;;;;8.32;3.13;;;6.20;45.80;;;;;;5057388;28;20035;-77
2021/01/27 10:18:37;;;;;;;6.70;2.28;;;6.20;45.10;;;;;;5064915;28;20070;-77
2021/01/27 10:21:07;;;;;;;2.70;1.50;;;6.20;46.00;;;;;;5092273;28;20106;-77
2021/01/27 10:23:38;;;;;;;3.90;1.30;;;6.20;45.70;;;;;;5086184;28;20056;-77
2021/01/27 10:26:41;;;;;;;21.42;2.95;;;6.20;44.00;;;;;;5093131;28;20069;-77
2021/01/27 10:29:32;;;;;;;;;;;6.30;44.80;;;;;;5086715;28;20020;-76
2021/01/27 10:32:37;;;;;;;6.60;2.20;;;6.30;43.90;;;;;;5086246;28;20288;-77
2021/01/27 10:35:47;;;;;;;4.38;2.70;;;6.30;43.10;;;;;;5052024;28;20036;-77
2021/01/27 10:38:17;;;;;;;6.18;3.80;;;6.30;42.30;;;;;;5051193;28;20052;-77
2021/01/27 10:41:20;;;;;;;5.55;3.63;;;6.30;42.20;;;;;;5056915;28;20032;-77
2021/01/27 10:43:46;;;;;;;10.90;4.25;;;6.40;42.80;;;;;;5070406;28;20044;-77
2021/01/27 10:46:50;;;;;;;4.38;3.00;;;6.50;43.90;;;;;;5069008;28;20451;-77
2021/01/27 10:49:18;;;;;;;7.05;3.58;;;6.50;44.50;;;;;;5068683;28;20493;-77
2021/01/27 10:51:47;;;;;;;4.75;3.08;;;6.50;45.60;;;;;;5083227;28;20024;-78
2021/01/27 10:54:21;;;;;;;6.00;3.38;;;6.50;45.60;;;;;;5111236;28;20030;-78
2021/01/27 10:56:51;;;;;;;7.05;4.00;;;6.60;45.10;;;;;;5071012;28;20032;-77
2021/01/27 10:59:17;;;;;;;5.45;4.05;;;6.60;46.70;;;;;;5075598;28;20371;-77
2021/01/27 11:01:42;;;;;;;17.83;6.55;;;6.60;47.40;;;;;;5065991;28;20035;-77
2021/01/27 11:04:11;;;;;;;16.23;5.60;;;6.60;45.20;;;;;;5070364;28;20352;-77
2021/01/27 11:06:39;;;;;;;11.38;5.65;;;6.60;46.30;;;;;;5065939;28;20378;-77
2021/01/27 11:09:04;;;;;;;9.18;4.43;;;6.70;45.80;;;;;;5069296;28;20024;-77
2021/01/27 11:11:44;;;;;;;7.30;3.40;;;6.80;44.30;;;;;;5067076;28;20494;-77
2021/01/27 11:14:10;;;;;;;7.90;3.45;;;6.80;41.60;;;;;;5068466;28;20047;-77
2021/01/27 11:16:35;;;;;;;5.40;2.42;;;6.90;44.60;;;;;;5069138;28;20435;-78
2021/01/27 11:19:02;;;;;;;7.28;2.60;;;6.90;42.10;;;;;;5082483;28;20074;-77
2021/01/27 11:21:27;;;;;;;3.67;2.10;;;7.00;38.80;;;;;;5070195;28;20059;-77
2021/01/27 11:23:53;;;;;;;2.95;2.38;;;7.00;39.10;;;;;;5090498;28;20078;-77
2021/01/27 11:26:19;;;;;;;1.80;1.50;;;7.10;42.80;;;;;;5089054;28;20020;-77
2021/01/27 11:28:49;;;;;;;1.63;1.13;;;7.10;41.60;;;;;;5089662;28;20044;-77
2021/01/27 11:31:16;;;;;;;4.38;1.60;;;7.20;39.60;;;;;;5071157;28;20070;-77
2021/01/27 11:33:44;;;;;;;1.77;1.67;;;7.20;38.00;;;;;;5071828;28;20080;-77
2021/01/27 11:36:10;;;;;;;2.60;1.90;;;7.10;37.50;;;;;;5085408;28;20070;-77
2021/01/27 11:38:35;;;;;;;7.93;1.42;;;7.20;37.50;;;;;;5070459;28;20059;-77
2021/01/27 11:41:01;;;;;;;4.07;2.20;;;7.20;37.50;;;;;;5068330;28;20031;-78
2021/01/27 11:43:27;;;;;;;9.48;3.10;;;7.20;41.80;;;;;;5052703;28;20050;-77
2021/01/27 11:45:53;;;;;;;6.13;3.83;;;7.20;46.10;;;;;;5068554;28;20017;-77
2021/01/27 11:48:18;;;;;;;11.20;3.53;;;7.20;47.80;;;;;;5058213;28;20028;-77
2021/01/27 11:50:44;;;;;;;9.15;3.53;;;7.20;48.20;;;;;;5088203;28;20078;-77
2021/01/27 11:53:13;;;;;;;20.58;3.83;;;7.20;47.70;;;;;;5072603;28;20089;-77
2021/01/27 11:55:39;;;;;;;14.07;4.20;;;7.20;47.90;;;;;;5069864;28;20123;-77
2021/01/27 11:58:05;;;;;;;7.10;3.05;;;7.20;47.40;;;;;;5089741;28;20462;-77
2021/01/27 12:00:31;;;;;;;6.18;3.40;;;7.20;47.00;;;;;;5070357;28;20028;-77
2021/01/27 12:02:57;;;;;;;6.72;4.32;;;7.30;47.00;;;;;;5090570;28;20018;-77
2021/01/27 12:05:23;;;;;;;8.68;4.90;;;7.30;47.00;;;;;;5067282;28;20024;-77
2021/01/27 12:07:48;;;;;;;18.17;5.70;;;7.30;47.30;;;;;;5070150;28;20024;-77
2021/01/27 12:10:15;;;;;;;19.38;7.53;;;7.20;47.90;;;;;;5084804;28;20105;-77
2021/01/27 12:12:41;;;;;;;13.02;6.60;;;7.30;49.30;;;;;;5080902;28;20020;-77
2021/01/27 12:15:07;;;;;;;18.58;6.18;;;7.20;49.30;;;;;;5067814;28;20082;-77
2021/01/27 12:17:33;;;;;;;26.88;6.65;;;7.20;49.50;;;;;;5070915;28;20021;-77
2021/01/27 12:19:58;;;;;;;13.48;5.78;;;7.10;49.20;;;;;;5075298;28;20027;-77
2021/01/27 12:22:24;;;;;;;22.80;7.93;;;7.10;50.00;;;;;;5075033;28;20020;-77
2021/01/27 12:24:50;;;;;;;41.70;10.05;;;7.10;51.20;;;;;;5095495;28;20676;-77
2021/01/27 12:27:15;;;;;;;26.20;9.25;;;7.00;52.00;;;;;;5077349;28;20458;-77
2021/01/27 12:29:41;;;;;;;23.83;8.95;;;6.80;52.90;;;;;;5076858;28;20130;-77
2021/01/27 12:32:07;;;;;;;20.23;9.85;;;6.80;54.30;;;;;;5095354;28;20020;-77
2021/01/27 12:34:32;;;;;;;21.60;9.90;;;6.80;54.50;;;;;;5076974;28;20020;-77
2021/01/27 12:36:59;;;;;;;22.10;11.25;;;6.70;54.00;;;;;;5095277;28;20035;-77
2021/01/27 12:39:24;;;;;;;23.40;11.48;;;6.70;53.50;;;;;;5095687;28;20028;-77
2021/01/27 12:41:50;;;;;;;24.23;8.70;;;6.70;52.70;;;;;;5097838;28;20030;-77
2021/01/27 12:44:16;;;;;;;19.85;8.50;;;6.60;52.00;;;;;;5097886;28;20059;-77
2021/01/27 12:46:42;;;;;;;19.00;7.30;;;6.70;52.10;;;;;;5097783;28;20374;-77
2021/01/27 12:49:07;;;;;;;14.40;6.28;;;6.70;52.40;;;;;;5116174;28;20019;-77
2021/01/27 12:51:33;;;;;;;11.73;6.68;;;6.70;51.80;;;;;;5097927;28;20070;-77
2021/01/27 12:53:59;;;;;;;15.88;6.53;;;6.60;51.90;;;;;;5116166;28;20050;-78
2021/01/27 12:56:25;;;;;;;10.32;5.03;;;6.60;51.10;;;;;;5097627;28;20027;-78
2021/01/27 12:58:50;;;;;;;18.30;5.03;;;6.60;51.50;;;;;;5115555;28;20584;-77
2021/01/27 13:01:16;;;;;;;14.88;5.32;;;6.60;51.50;;;;;;5097418;28;20392;-77
2021/01/27 13:03:42;;;;;;;4.85;3.88;;;6.70;51.50;;;;;;5115331;28;20102;-77
2021/01/27 13:06:09;;;;;;;12.13;5.50;;;6.70;49.80;;;;;;5113927;28;20466;-77
2021/01/27 13:08:34;;;;;;;10.90;4.70;;;6.70;49.10;;;;;;5073957;28;20046;-77
2021/01/27 13:11:00;;;;;;;10.35;5.10;;;6.70;48.90;;;;;;5060050;28;20033;-77
2021/01/27 13:13:26;;;;;;;13.10;4.18;;;6.70;48.90;;;;;;5057041;28;20390;-77
2021/01/27 13:15:52;;;;;;;7.68;4.68;;;6.80;49.00;;;;;;5063226;28;20028;-77
2021/01/27 13:18:18;;;;;;;6.20;3.45;;;6.80;49.70;;;;;;5076604;28;20685;-78
2021/01/27 13:20:43;;;;;;;6.10;4.57;;;6.80;48.50;;;;;;5094990;28;20055;-78
2021/01/27 13:23:12;;;;;;;6.72;4.53;;;6.80;46.40;;;;;;5073517;28;20049;-78
2021/01/27 13:25:38;;;;;;;9.32;3.70;;;6.90;47.40;;;;;;5052201;28;20131;-77
2021/01/27 13:28:07;;;;;;;4.97;3.53;;;6.90;46.10;;;;;;5057540;28;20485;-77
2021/01/27 13:30:35;;;;;;;4.70;3.75;;;6.90;46.70;;;;;;5064749;28;20028;-77
2021/01/27 13:33:02;;;;;;;4.65;3.53;;;6.90;46.50;;;;;;5078365;28;20434;-78
2021/01/27 13:35:29;;;;;;;6.55;4.10;;;6.90;46.00;;;;;;5072948;28;20107;-77